Tiempo atmosférico en la estación meteorológica de La Rambla, Córdoba (200 m.)



Fecha
DESCASC
Temp. máxima en grados centígrados (hora)
DESCASC
Temp. mínima en grados centígrados (hora)
DESCASC
Temp. media en grados centígrados
DESCASC
Racha de viento máxima en m/sg (hora)
DESCASC
Velocidad máxima media en intervalos de 10 minutos(hora)
DESCASC
Precipitaciones diarias en mm
DESCASC
Precipitaciones de 00:00 a 06:00 en mm
DESCASC
Precipitaciones de 06:00 a 12:00 en mm
DESCASC
Precipitaciones de 12:00 a 18:00 en mm
DESCASC
Precipitaciones de 18:00 a 24:00 en mm
DESCASC
16-01-2020 18.5 (16:20) 3.7 (08:40) 11.1 5.28 (15:10) 3.61 (15:10) 0 0 0 0 0
15-01-2020 17.1 (16:50) 2.5 (09:00) 9.8 4.72 (07:00) 2.78 (11:30) 0 0 0 0 0
14-01-2020 14.4 (15:20) 1.8 (03:00) 8.1 4.72 (10:10) 2.5 (10:10) 0 0 0 0 0
13-01-2020 15 (15:30) 1.7 (02:30) 8.4 5.83 (12:00) 3.33 (12:00) 0 0 0 0 0
12-01-2020 14.4 (15:40) 2.2 (00:00) 8.3 5.56 (11:30) 3.06 (12:10) 0 0 0 0 0
11-01-2020 14.9 (16:10) 3 (00:00) 8.9 10 (02:20) 7.78 (02:20) 0 0 0 0 0
10-01-2020 14.7 (15:50) 4.2 (00:00) 9.4 9.72 (15:00) 6.39 (17:10) 0 0 0 0 0
09-01-2020 15.7 (14:50) 2.6 (00:00) 9.1 5.28 (16:10) 3.61 (16:10) 0 0 0 0 0
08-01-2020 16.9 (17:10) 2.2 (00:00) 9.5 4.72 (02:20) 3.06 (02:10) 0 0 0 0 0
07-01-2020 16.5 (16:30) 1.7 (00:00) 9.1 6.67 (12:10) 3.89 (12:10) 0 0 0 0 0
06-01-2020 15.9 (16:50) 2.5 (00:00) 9.2 4.72 (11:30) 3.33 (07:40) 0 0 0 0 0
05-01-2020 14.7 (16:30) 4.1 (00:00) 9.4 5.28 (05:30) 2.78 (10:20) 0 0 0 0 0
04-01-2020 12.7 (15:10) 5.5 (00:00) 9.1 6.39 (16:10) 4.72 (16:20) 0.2 0 0.2 0 0
03-01-2020 14 (16:40) 3.1 (00:00) 8.5 4.17 (11:30) 2.5 (13:00) 0 0 0 0 0
02-01-2020 16 (16:20) 2.9 (00:00) 9.5 4.17 (11:30) 2.5 (16:40) 0 0 0 0 0
01-01-2020 16.7 (17:40) 3.4 (00:00) 10.1 4.44 (11:40) 2.5 (11:40) 0 0 0 0 0
31-12-2019 15.6 (16:30) 3.3 (00:00) 9.5 5 (12:00) 2.78 (12:10) 0 0 0 0 0
30-12-2019 -- (--) -- (--) -- -- (--) -- (--) -- 0 0 -- 0
29-12-2019 16.7 (17:00) 4.8 (00:00) 10.8 4.72 (10:40) 3.33 (12:10) 0 0 0 0 0
28-12-2019 20.5 (17:10) 5.8 (00:00) 13.2 5 (11:50) 2.78 (11:50) 0 0 0 0 0
27-12-2019 19 (15:30) 7.6 (00:00) 13.3 5.28 (11:50) 3.61 (11:50) 0 0 0 0 0
26-12-2019 17.6 (15:50) 7.2 (00:00) 12.4 7.22 (14:10) 5 (14:20) 0 0 0 0 0
25-12-2019 18.4 (16:20) 6.8 (00:00) 12.6 6.11 (08:10) 3.33 (03:30) 0 0 0 0 0
24-12-2019 19.9 (16:20) 8.7 (00:00) 14.3 8.89 (09:10) 5.28 (01:40) 0 0 0 0 0
23-12-2019 16.5 (16:10) 10.2 (00:00) 13.3 6.39 (12:50) 4.44 (11:20) 0 0 0 0 0
22-12-2019 15.5 (15:00) 10.3 (00:00) 12.9 9.44 (15:30) 7.5 (15:30) 0.2 0 0 0.2 0
21-12-2019 17.1 (16:50) 14.2 (00:00) 15.7 19.44 (16:40) 13.33 (14:00) 6.4 1 3 1.8 0.6

Gráficas

Temp. máximas Temp. mínimas Temp. medias Precipitaciones Rachas de viento máximas Velocidades máximas media en intervalos de 10 minutos

Datos horarios

Fecha y hora oficial Temperatura (ºC) Velocidad del viento (km/h) Dirección del viento Racha (km/h) Dirección de racha Precipitación (mm) Presión (hPa) Tendencia (hPa) Humedad (%)
2020-01-19 23:00:00 7.1 24 Nordeste 33 Nordeste 0 -- -- 78
2020-01-19 22:00:00 7 17 Norte 37 Nordeste 0 -- -- 80
2020-01-19 21:00:00 7.7 22 Nordeste 34 Norte 0 -- -- 77
2020-01-19 20:00:00 8.1 19 Norte 38 Norte 0 -- -- 78
2020-01-19 19:00:00 9.6 26 Nordeste 38 Nordeste 0 -- -- 73
2020-01-19 18:00:00 10.4 13 Norte 35 Norte 0 -- -- 76
2020-01-19 17:00:00 11.2 20 Norte 44 Norte 0 -- -- 75
2020-01-19 16:00:00 11.8 21 Norte 37 Norte 0 -- -- 72
2020-01-19 15:00:00 13.1 16 Norte 27 Norte 0 -- -- 71
2020-01-19 14:00:00 10.7 15 Nordeste 27 Nordeste 0 -- -- 80
2020-01-19 13:00:00 12.1 14 Norte 27 Norte 0 -- -- 74
2020-01-19 12:00:00 11.5 13 Noroeste 23 Norte 0 -- -- 82
2020-01-19 11:00:00 10.7 13 Noroeste 22 Noroeste 0 -- -- 85
2020-01-19 10:00:00 9.3 3 Sudoeste 8 Sudoeste 0 -- -- 90
2020-01-19 09:00:00 8.2 2 Sudoeste 13 Oeste 0 -- -- 93
2020-01-19 08:00:00 8.4 4 Oeste 13 Oeste 0 -- -- 92
2020-01-19 07:00:00 8.6 13 Oeste 21 Oeste 0 -- -- 90
2020-01-19 06:00:00 8.5 11 Oeste 19 Oeste 0 -- -- 90
2020-01-19 05:00:00 9.2 11 Oeste 19 Oeste 0 -- -- 90
2020-01-19 04:00:00 9.6 9 Oeste 13 Oeste 0 -- -- 95
2020-01-19 03:00:00 10.4 5 Oeste 16 Oeste 0 -- -- 97
2020-01-19 02:00:00 10.8 6 Sudoeste 23 Noroeste 0 -- -- 94
2020-01-19 01:00:00 12.2 9 Oeste 22 Sudoeste 0 -- -- 98
2020-01-19 00:00:00 13 14 Oeste 30 Oeste 0 -- -- 98
2020-01-18 23:00:00 13.5 14 Sudoeste 23 Sudoeste 0 -- -- 100
2020-01-18 22:00:00 13.1 9 Sudoeste 15 Sur 0 -- -- 100
2020-01-18 21:00:00 12.4 3 Este 24 Oeste 1.8 -- -- 99
2020-01-18 20:00:00 14 20 Sudoeste 30 Sudoeste 0.6 -- -- 100
2020-01-18 19:00:00 13.8 18 Sudoeste 26 Sur 1.4 -- -- 100
2020-01-18 18:00:00 13.7 15 Sur 21 Sur 2.2 -- -- 99
2020-01-18 17:00:00 13.1 12 Sur 22 Sur 0.2 -- -- 97
2020-01-18 16:00:00 13.7 16 Sur 22 Sur 0 -- -- 84
2020-01-18 15:00:00 13.8 14 Sur 22 Sur 0 -- -- 79
2020-01-18 14:00:00 13.3 12 Sur 21 Sur 0 -- -- 82
2020-01-18 13:00:00 11.8 11 Sur 17 Sur 0 -- -- 89
2020-01-18 12:00:00 10.2 0 Calma 10 Sudoeste 0.2 -- -- 96
2020-01-18 11:00:00 9.9 6 Sudoeste 15 Sur 0.8 -- -- 97
2020-01-18 10:00:00 8.9 3 Norte 8 Norte 0.6 -- -- 96
2020-01-18 09:00:00 8.9 0 Calma 12 Norte 0 -- -- 94
2020-01-18 08:00:00 8.3 0 Calma 8 Norte 0 -- -- 96
2020-01-18 07:00:00 7.8 2 Sudeste 6 Noroeste 0 -- -- 96
2020-01-18 06:00:00 7.5 2 Nordeste 5 Nordeste 0 -- -- 95
2020-01-18 05:00:00 7.1 4 Norte 5 Norte 0 -- -- 96
2020-01-18 04:00:00 6.8 0 Calma 4 Norte 0 -- -- 96
2020-01-18 03:00:00 6.3 2 Este 6 Este 0 -- -- 96
2020-01-18 02:00:00 6.4 4 Norte 6 Noroeste 0 -- -- 94
2020-01-18 01:00:00 6.5 0 Calma 4 Norte 0 -- -- 92
2020-01-18 00:00:00 8.2 3 Norte 4 Norte 0 -- -- 91
2020-01-17 23:00:00 8.7 3 Norte 6 Norte 0 -- -- 90
2020-01-17 22:00:00 8.6 3 Norte 9 Norte 0 -- -- 89
2020-01-17 21:00:00 8.8 0 Calma 6 Norte 0 -- -- 89
2020-01-17 20:00:00 10.1 3 Norte 6 Este 0 -- -- 84
2020-01-17 19:00:00 12.2 0 Calma 6 Sudoeste 0 -- -- 80
2020-01-17 18:00:00 16.2 5 Sudoeste 9 Sudoeste 0 -- -- 70
2020-01-17 17:00:00 17 5 Sudoeste 9 Sudoeste 0 -- -- 67
2020-01-17 16:00:00 17.1 2 Oeste 9 Sudoeste 0 -- -- 66
2020-01-17 15:00:00 16.2 7 Sudoeste 12 Sur 0 -- -- 70
2020-01-17 14:00:00 16.2 6 Sudoeste 8 Sudoeste 0 -- -- 67
2020-01-17 13:00:00 14.9 4 Sudoeste 8 Sudoeste 0 -- -- 65
2020-01-17 12:00:00 12.6 3 Norte 6 Norte 0 -- -- 71
2020-01-17 11:00:00 10.4 0 Calma 5 Noroeste 0 -- -- 85
2020-01-17 10:00:00 9 0 Calma 3 Nordeste 0 -- -- 87
2020-01-17 09:00:00 8.2 2 Este 5 Noroeste 0 -- -- 88
2020-01-17 08:00:00 7.7 4 Nordeste 8 Norte 0 -- -- 86
2020-01-17 07:00:00 6.7 3 Norte 7 Norte 0 -- -- 89
2020-01-17 06:00:00 5.7 0 Calma 5 Sudeste 0 -- -- 92
2020-01-17 05:00:00 4.8 3 Este 5 Este 0 -- -- 89
2020-01-17 04:00:00 5 0 Calma 6 Norte 0 -- -- 90
2020-01-17 03:00:00 5.4 2 Norte 7 Norte 0 -- -- 88
2020-01-17 02:00:00 7.2 0 Calma 5 Norte 0 -- -- 86
2020-01-17 01:00:00 6.9 0 Calma 6 Norte 0 -- -- 84
2020-01-17 00:00:00 6.2 3 Norte 5 Norte 0 -- -- 83
2020-01-16 23:00:00 7 0 Calma 5 Norte 0 -- -- 79
2020-01-16 22:00:00 6.5 3 Nordeste 6 Norte 0 -- -- 82
2020-01-16 21:00:00 7.4 3 Norte 6 Norte 0 -- -- 77
2020-01-16 20:00:00 8.7 4 Norte 6 Norte 0 -- -- 72
2020-01-16 19:00:00 11.6 3 Este 6 Sudoeste 0 -- -- 68
2020-01-16 18:00:00 16.5 4 Oeste 15 Oeste 0 -- -- 49
2020-01-16 17:00:00 17.9 9 Oeste 18 Oeste 0 -- -- 41
2020-01-16 16:00:00 18.2 10 Sudoeste 19 Sudoeste 0 -- -- 42
2020-01-16 15:00:00 17.8 11 Sudoeste 18 Sudoeste 0 -- -- 50
2020-01-16 14:00:00 16 2 Oeste 8 Norte 0 -- -- 57
2020-01-16 13:00:00 13.2 6 Norte 15 Norte 0 -- -- 63
2020-01-16 12:00:00 10.7 8 Norte 15 Norte 0 -- -- 72
2020-01-16 11:00:00 8.3 6 Norte 13 Norte 0 -- -- 79
2020-01-16 10:00:00 6.4 5 Norte 10 Nordeste 0 -- -- 88
2020-01-16 09:00:00 3.8 4 Norte 13 Norte 0 -- -- 93
2020-01-16 08:00:00 4 6 Norte 13 Nordeste 0 -- -- 93
2020-01-16 07:00:00 4.3 6 Norte 13 Norte 0 -- -- 93
2020-01-16 06:00:00 4.9 6 Norte 12 Norte 0 -- -- 93
2020-01-16 05:00:00 4.8 4 Norte 10 Nordeste 0 -- -- 94
2020-01-16 04:00:00 5 3 Este 9 Norte 0 -- -- 92
2020-01-16 03:00:00 5.9 3 Norte 10 Norte 0 -- -- 92
2020-01-16 02:00:00 5.3 3 Norte 6 Norte 0 -- -- 94
2020-01-16 01:00:00 5.1 3 Norte 6 Norte 0 -- -- 92
2020-01-16 00:00:00 5.8 0 Calma 7 Norte 0 -- -- 90
2020-01-15 23:00:00 7.2 0 Calma 8 Nordeste 0 -- -- 88
2020-01-15 22:00:00 9.1 5 Norte 9 Norte 0 -- -- 84
2020-01-15 21:00:00 10.1 2 Nordeste 10 Norte 0 -- -- 81
2020-01-15 20:00:00 9.9 3 Norte 5 Norte 0 -- -- 81
2020-01-15 19:00:00 12.5 3 Norte 6 Norte 0 -- -- 75
2020-01-15 18:00:00 15.2 2 Este 4 Sur 0 -- -- 70
2020-01-15 17:00:00 16.9 2 Sudoeste 10 Sudoeste 0 -- -- 62
2020-01-15 16:00:00 16.5 5 Sudoeste 15 Sur 0 -- -- 64
2020-01-15 15:00:00 16.3 9 Sudoeste 17 Sudoeste 0 -- -- 64
2020-01-15 14:00:00 14.6 4 Noroeste 9 Norte 0 -- -- 64
2020-01-15 13:00:00 12.4 2 Norte 9 Noroeste 0 -- -- 67
2020-01-15 12:00:00 9.7 6 Norte 17 Norte 0 -- -- 77
2020-01-15 11:00:00 8.1 3 Norte 11 Norte 0 -- -- 83
2020-01-15 10:00:00 5.2 4 Norte 9 Nordeste 0 -- -- 94
2020-01-15 09:00:00 2.5 3 Norte 12 Nordeste 0 -- -- 95
2020-01-15 08:00:00 2.8 5 Norte 16 Nordeste 0 -- -- 95
2020-01-15 07:00:00 3.3 9 Norte 17 Norte 0 -- -- 94
2020-01-15 06:00:00 3.9 6 Norte 13 Norte 0 -- -- 93
2020-01-15 05:00:00 3.9 5 Norte 12 Norte 0 -- -- 93
2020-01-15 04:00:00 3.9 5 Norte 13 Norte 0 -- -- 93
2020-01-15 03:00:00 4 2 Nordeste 10 Norte 0 -- -- 92
2020-01-15 02:00:00 4.1 3 Norte 7 Norte 0 -- -- 92
2020-01-15 01:00:00 4.2 3 Norte 5 Norte 0 -- -- 91
2020-01-15 00:00:00 4.6 3 Norte 5 Norte 0 -- -- 90
2020-01-14 23:00:00 4.6 0 Calma 7 Norte 0 -- -- 90
2020-01-14 22:00:00 5.3 3 Norte 5 Norte 0 -- -- 86
2020-01-14 21:00:00 5.9 3 Este 6 Este 0 -- -- 87
2020-01-14 20:00:00 7.3 0 Calma 7 Norte 0 -- -- 83
2020-01-14 19:00:00 9.3 3 Este 4 Este 0 -- -- 77
2020-01-14 18:00:00 12.9 4 Sudoeste 10 Sudoeste 0 -- -- 65
2020-01-14 17:00:00 13.7 3 Sudoeste 9 Sudeste 0 -- -- 57
2020-01-14 16:00:00 13.8 7 Sudoeste 12 Sudoeste 0 -- -- 59
2020-01-14 15:00:00 14.2 7 Sudoeste 14 Sudoeste 0 -- -- 61
2020-01-14 14:00:00 13.4 3 Sudoeste 12 Norte 0 -- -- 65
2020-01-14 13:00:00 11.2 6 Norte 10 Norte 0 -- -- 73
2020-01-14 12:00:00 9.1 8 Norte 17 Norte 0 -- -- 80
2020-01-14 11:00:00 6.6 8 Norte 17 Norte 0 -- -- 88
2020-01-14 10:00:00 4.6 8 Norte 17 Norte 0 -- -- 92
2020-01-14 09:00:00 3.7 8 Norte 15 Norte 0 -- -- 93
2020-01-14 08:00:00 4 6 Norte 11 Norte 0 -- -- 93
2020-01-14 07:00:00 3.8 4 Norte 14 Norte 0 -- -- 95
2020-01-14 06:00:00 2.6 6 Norte 14 Norte 0 -- -- 96
2020-01-14 05:00:00 2.7 3 Norte 10 Norte 0 -- -- 95
2020-01-14 04:00:00 2.7 5 Norte 14 Norte 0 -- -- 96
2020-01-14 03:00:00 1.8 3 Nordeste 7 Nordeste 0 -- -- 95
2020-01-14 02:00:00 2.6 2 Nordeste 8 Norte 0 -- -- 94
2020-01-14 01:00:00 2.9 2 Norte 7 Norte 0 -- -- 92
2020-01-14 00:00:00 3.8 4 Norte 9 Norte 0 -- -- 92
2020-01-13 23:00:00 3.6 5 Norte 7 Norte 0 -- -- 91
2020-01-13 22:00:00 4 3 Nordeste 5 Norte 0 -- -- 88
2020-01-13 21:00:00 5.3 0 Calma 4 Norte 0 -- -- 87
2020-01-13 20:00:00 6.9 0 Calma 4 Norte 0 -- -- 83
2020-01-13 19:00:00 8.9 3 Este 8 Noroeste 0 -- -- 78
2020-01-13 18:00:00 12.4 8 Noroeste 14 Oeste 0 -- -- 63
2020-01-13 17:00:00 14.5 8 Sudoeste 13 Sudoeste 0 -- -- 56
2020-01-13 16:00:00 15 6 Sur 12 Sudoeste 0 -- -- 57
2020-01-13 15:00:00 14.8 3 Sur 6 Sudoeste 0 -- -- 61
2020-01-13 14:00:00 13 2 Oeste 11 Norte 0 -- -- 66
2020-01-13 13:00:00 10.2 9 Norte 17 Norte 0 -- -- 74
2020-01-13 12:00:00 7.4 12 Norte 21 Norte 0 -- -- 80
2020-01-13 11:00:00 6 10 Norte 18 Norte 0 -- -- 86
2020-01-13 10:00:00 3.3 9 Norte 18 Norte 0 -- -- 94
2020-01-13 09:00:00 1.9 8 Norte 17 Norte 0 -- -- 96
2020-01-13 08:00:00 1.8 8 Norte 14 Norte 0 -- -- 96
2020-01-13 07:00:00 2 7 Norte 14 Norte 0 -- -- 96
2020-01-13 06:00:00 1.7 3 Norte 15 Norte 0 -- -- 95
2020-01-13 05:00:00 2.3 4 Norte 11 Norte 0 -- -- 95
2020-01-13 04:00:00 2.8 4 Norte 12 Norte 0 -- -- 95
2020-01-13 03:00:00 1.8 3 Norte 8 Norte 0 -- -- 94
2020-01-13 02:00:00 2.3 4 Norte 6 Norte 0 -- -- 94
2020-01-13 01:00:00 1.9 3 Este 4 Este 0 -- -- 91
2020-01-13 00:00:00 3.3 0 Calma 8 Norte 0 -- -- 88
2020-01-12 23:00:00 3.9 0 Calma 7 Norte 0 -- -- 90
2020-01-12 22:00:00 4.2 6 Norte 8 Noroeste 0 -- -- 87
2020-01-12 21:00:00 5.1 2 Norte 5 Norte 0 -- -- 85
2020-01-12 20:00:00 6.5 0 Calma 6 Norte 0 -- -- 81
2020-01-12 19:00:00 9.4 0 Calma 5 Norte 0 -- -- 74
2020-01-12 18:00:00 13.8 2 Nordeste 11 Nordeste 0 -- -- 62
2020-01-12 17:00:00 14.4 6 Nordeste 16 Nordeste 0 -- -- 55
2020-01-12 16:00:00 14.4 8 Nordeste 14 Nordeste 0 -- -- 56
2020-01-12 15:00:00 13.9 6 Norte 13 Nordeste 0 -- -- 64
2020-01-12 14:00:00 13 8 Nordeste 17 Norte 0 -- -- 67
2020-01-12 13:00:00 11.7 9 Norte 18 Norte 0 -- -- 73
2020-01-12 12:00:00 9.2 9 Norte 20 Nordeste 0 -- -- 80
2020-01-12 11:00:00 6.3 10 Norte 19 Nordeste 0 -- -- 88
2020-01-12 10:00:00 4.4 9 Norte 16 Norte 0 -- -- 93
2020-01-12 09:00:00 2.4 8 Norte 13 Norte 0 -- -- 96
2020-01-12 08:00:00 2.4 5 Norte 13 Norte 0 -- -- 95
2020-01-12 07:00:00 2.7 5 Norte 12 Norte 0 -- -- 94
2020-01-12 06:00:00 3.1 4 Norte 12 Nordeste 0 -- -- 93
2020-01-12 05:00:00 3.2 5 Norte 12 Norte 0 -- -- 93
2020-01-12 04:00:00 3 3 Norte 8 Norte 0 -- -- 94
2020-01-12 03:00:00 2.4 3 Norte 7 Norte 0 -- -- 92
2020-01-12 02:00:00 3.1 4 Norte 9 Norte 0 -- -- 91
2020-01-12 01:00:00 2.7 0 Calma 8 Norte 0 -- -- 92
2020-01-12 00:00:00 3.4 0 Calma 5 Norte 0 -- -- 90
2020-01-11 23:00:00 4.2 0 Calma 5 Este 0 -- -- 86
2020-01-11 22:00:00 5.7 0 Calma 6 Norte 0 -- -- 82
2020-01-11 21:00:00 6.5 4 Norte 6 Norte 0 -- -- 79
2020-01-11 20:00:00 7.6 3 Norte 6 Norte 0 -- -- 75
2020-01-11 19:00:00 10.1 3 Norte 9 Nordeste 0 -- -- 69
2020-01-11 18:00:00 13.9 5 Nordeste 15 Nordeste 0 -- -- 57
2020-01-11 17:00:00 14.8 12 Nordeste 20 Nordeste 0 -- -- 51
2020-01-11 16:00:00 14.8 12 Nordeste 22 Nordeste 0 -- -- 54
2020-01-11 15:00:00 14.1 14 Nordeste 22 Nordeste 0 -- -- 56
2020-01-11 14:00:00 13.1 14 Nordeste 24 Nordeste 0 -- -- 59
2020-01-11 13:00:00 11.7 11 Norte 23 Norte 0 -- -- 59
2020-01-11 12:00:00 9.9 18 Nordeste 29 Nordeste 0 -- -- 67
2020-01-11 11:00:00 8.4 15 Norte 27 Nordeste 0 -- -- 68
2020-01-11 10:00:00 7.1 9 Norte 23 Norte 0 -- -- 73
2020-01-11 09:00:00 4 8 Norte 17 Norte 0 -- -- 83
2020-01-11 08:00:00 4.3 8 Norte 18 Nordeste 0 -- -- 80
2020-01-11 07:00:00 3.1 10 Norte 15 Norte 0 -- -- 85
2020-01-11 06:00:00 5.7 5 Nordeste 23 Nordeste 0 -- -- 73
2020-01-11 05:00:00 6.5 14 Nordeste 30 Nordeste 0 -- -- 71
2020-01-11 04:00:00 7.4 17 Nordeste 26 Nordeste 0 -- -- 68
2020-01-11 03:00:00 5.6 10 Norte 36 Nordeste 0 -- -- 76
2020-01-11 02:00:00 7.2 18 Nordeste 28 Norte 0 -- -- 71
2020-01-11 01:00:00 6.9 15 Nordeste 21 Nordeste 0 -- -- 73
2020-01-11 00:00:00 7.2 12 Nordeste 17 Nordeste 0 -- -- 72
2020-01-10 23:00:00 5.3 4 Norte 9 Norte 0 -- -- 77
2020-01-10 22:00:00 7.9 4 Nordeste 19 Nordeste 0 -- -- 66
2020-01-10 21:00:00 8.6 6 Norte 16 Norte 0 -- -- 64
2020-01-10 20:00:00 8.8 5 Norte 23 Nordeste 0 -- -- 66
2020-01-10 19:00:00 11.9 17 Nordeste 30 Nordeste 0 -- -- 52
2020-01-10 18:00:00 13.7 17 Nordeste 35 Nordeste 0 -- -- 52
2020-01-10 17:00:00 14.7 19 Nordeste 31 Nordeste 0 -- -- 51
2020-01-10 16:00:00 14.7 15 Nordeste 29 Nordeste 0 -- -- 63
2020-01-10 15:00:00 14.1 21 Nordeste 35 Nordeste 0 -- -- 64
2020-01-10 14:00:00 13.3 12 Norte 22 Nordeste 0 -- -- 77
2020-01-10 13:00:00 11.9 11 Nordeste 18 Nordeste 0 -- -- 83
2020-01-10 12:00:00 10.3 5 Nordeste 10 Nordeste 0 -- -- 89
2020-01-10 11:00:00 9.6 4 Norte 7 Norte 0 -- -- 93
2020-01-10 10:00:00 8 2 Norte 4 Norte 0 -- -- 96
2020-01-10 09:00:00 7.4 0 Calma 6 Norte 0 -- -- 96
2020-01-10 08:00:00 7.2 3 Norte 5 Norte 0 -- -- 97
2020-01-10 07:00:00 6.9 0 Calma 3 Sur 0 -- -- 97
2020-01-10 06:00:00 6.5 0 Calma 4 Norte 0 -- -- 97
2020-01-10 05:00:00 6 2 Norte 4 Sudeste 0 -- -- 97
2020-01-10 04:00:00 5.9 2 Norte 3 Nordeste 0 -- -- 98
2020-01-10 03:00:00 5 2 Este 4 Este 0 -- -- 98
2020-01-10 02:00:00 4.4 0 Calma 4 Este 0 -- -- 96
2020-01-10 01:00:00 4.6 0 Calma 2 Este 0 -- -- 94
2020-01-10 00:00:00 5.1 0 Calma 2 Norte 0 -- -- 95
2020-01-09 23:00:00 5 0 Calma 3 Norte 0 -- -- 93
2020-01-09 22:00:00 5.7 0 Calma 5 Norte 0 -- -- 92
2020-01-09 21:00:00 6.6 0 Calma 5 Sudeste 0 -- -- 88
2020-01-09 20:00:00 8.3 2 Nordeste 5 Sudeste 0 -- -- 84
2020-01-09 19:00:00 10.4 0 Calma 10 Oeste 0 -- -- 78
2020-01-09 18:00:00 14.2 6 Oeste 12 Sudoeste 0 -- -- 65
2020-01-09 17:00:00 14.9 6 Oeste 19 Oeste 0 -- -- 63
2020-01-09 16:00:00 14.9 12 Noroeste 19 Noroeste 0 -- -- 63
2020-01-09 15:00:00 15.7 6 Sudoeste 12 Sudoeste 0 -- -- 63
2020-01-09 14:00:00 15.2 5 Sudoeste 13 Sudoeste 0 -- -- 66
2020-01-09 13:00:00 14.1 6 Sudoeste 10 Sudoeste 0 -- -- 70
2020-01-09 12:00:00 11.7 2 Norte 5 Norte 0 -- -- 75
2020-01-09 11:00:00 8.4 4 Norte 9 Norte 0 -- -- 85
2020-01-09 10:00:00 4.9 6 Norte 12 Norte 0 -- -- 94
2020-01-09 09:00:00 3 5 Norte 10 Norte 0 -- -- 97
2020-01-09 08:00:00 3.3 3 Norte 12 Norte 0 -- -- 96
2020-01-09 07:00:00 3.4 8 Norte 9 Norte 0 -- -- 97
2020-01-09 06:00:00 3.5 3 Nordeste 7 Norte 0 -- -- 96
2020-01-09 05:00:00 3.6 0 Calma 5 Noroeste 0 -- -- 94
2020-01-09 04:00:00 4.5 0 Calma 4 Norte 0 -- -- 95
2020-01-09 03:00:00 4.2 2 Norte 3 Norte 0 -- -- 92
2020-01-09 02:00:00 4.3 0 Calma 5 Norte 0 -- -- 92
2020-01-09 01:00:00 4.7 4 Norte 5 Norte 0 -- -- 91
2020-01-09 00:00:00 4.2 0 Calma 7 Norte 0 -- -- 92
2020-01-08 23:00:00 4.8 3 Norte 5 Norte 0 -- -- 91
2020-01-08 22:00:00 5.7 2 Norte 6 Este 0 -- -- 88
2020-01-08 21:00:00 6.8 3 Nordeste 7 Norte 0 -- -- 85
2020-01-08 20:00:00 8.3 3 Norte 5 Norte 0 -- -- 80
2020-01-08 19:00:00 11.1 4 Norte 6 Norte 0 -- -- 72
2020-01-08 18:00:00 15.7 3 Norte 9 Norte 0 -- -- 58
2020-01-08 17:00:00 16.8 5 Norte 13 Nordeste 0 -- -- 52
2020-01-08 16:00:00 16 9 Norte 14 Norte 0 -- -- 57
2020-01-08 15:00:00 14.8 9 Norte 15 Norte 0 -- -- 59
2020-01-08 14:00:00 13.2 8 Norte 12 Norte 0 -- -- 66
2020-01-08 13:00:00 11.3 8 Norte 15 Norte 0 -- -- 70
2020-01-08 12:00:00 9.9 6 Nordeste 13 Nordeste 0 -- -- 67
2020-01-08 11:00:00 7.2 5 Norte 14 Nordeste 0 -- -- 84
2020-01-08 10:00:00 4.7 6 Norte 13 Nordeste 0 -- -- 92
2020-01-08 09:00:00 2.3 3 Norte 11 Noroeste 0 -- -- 96
2020-01-08 08:00:00 2.6 8 Norte 14 Norte 0 -- -- 94
2020-01-08 07:00:00 2.8 10 Norte 17 Norte 0 -- -- 94
2020-01-08 06:00:00 3.3 6 Norte 12 Norte 0 -- -- 93
2020-01-08 05:00:00 3.4 5 Norte 10 Norte 0 -- -- 93
2020-01-08 04:00:00 3.8 3 Norte 9 Norte 0 -- -- 93
2020-01-08 03:00:00 4.8 4 Norte 17 Nordeste 0 -- -- 91
2020-01-08 02:00:00 5.3 7 Norte 14 Nordeste 0 -- -- 94
2020-01-08 01:00:00 4.7 5 Norte 11 Nordeste 0 -- -- 95
2020-01-08 00:00:00 4.9 4 Norte 5 Norte 0 -- -- 92
2020-01-07 23:00:00 6.1 2 Este 9 Norte 0 -- -- 86
2020-01-07 22:00:00 6.9 0 Calma 9 Norte 0 -- -- 87
2020-01-07 21:00:00 7.3 3 Norte 5 Norte 0 -- -- 85
2020-01-07 20:00:00 8.6 3 Nordeste 6 Norte 0 -- -- 81
2020-01-07 19:00:00 11 4 Norte 7 Norte 0 -- -- 74
2020-01-07 18:00:00 15.2 3 Norte 11 Nordeste 0 -- -- 62
2020-01-07 17:00:00 16.3 6 Norte 11 Nordeste 0 -- -- 58
2020-01-07 16:00:00 16.3 6 Norte 14 Nordeste 0 -- -- 58
2020-01-07 15:00:00 15.1 10 Nordeste 18 Nordeste 0 -- -- 64
2020-01-07 14:00:00 13.7 11 Nordeste 20 Nordeste 0 -- -- 67
2020-01-07 13:00:00 11.6 11 Nordeste 24 Norte 0 -- -- 69
2020-01-07 12:00:00 9.3 9 Norte 18 Norte 0 -- -- 84
2020-01-07 11:00:00 7.4 7 Norte 14 Norte 0 -- -- 89
2020-01-07 10:00:00 5.5 4 Norte 13 Norte 0 -- -- 95
2020-01-07 09:00:00 2.8 3 Norte 18 Norte 0 -- -- 99
2020-01-07 08:00:00 1.7 4 Norte 14 Norte 0 -- -- 98
2020-01-07 07:00:00 3.1 3 Norte 12 Norte 0 -- -- 98
2020-01-07 06:00:00 3.1 6 Norte 10 Norte 0 -- -- 97
2020-01-07 05:00:00 3.7 9 Norte 18 Norte 0 -- -- 98
2020-01-07 04:00:00 4 5 Norte 10 Norte 0 -- -- 98
2020-01-07 03:00:00 3.9 4 Norte 8 Norte 0 -- -- 96
2020-01-07 02:00:00 5.1 3 Nordeste 9 Norte 0 -- -- 96
2020-01-07 01:00:00 5.3 2 Norte 6 Norte 0 -- -- 95
2020-01-07 00:00:00 5.9 2 Norte 9 Norte 0 -- -- 94
2020-01-06 23:00:00 6.2 4 Norte 8 Noroeste 0 -- -- 94
2020-01-06 22:00:00 7 4 Norte 9 Norte 0 -- -- 92
2020-01-06 21:00:00 7.5 0 Calma 5 Norte 0 -- -- 88
2020-01-06 20:00:00 8.7 3 Norte 8 Norte 0 -- -- 88
2020-01-06 19:00:00 10.7 0 Calma 7 Nordeste 0 -- -- 82
2020-01-06 18:00:00 14.3 3 Noroeste 5 Norte 0 -- -- 67
2020-01-06 17:00:00 15.7 2 Nordeste 7 Nordeste 0 -- -- 62
2020-01-06 16:00:00 15.6 3 Este 7 Nordeste 0 -- -- 65
2020-01-06 15:00:00 15.3 3 Sudoeste 9 Sudoeste 0 -- -- 67
2020-01-06 14:00:00 13.2 3 Norte 7 Nordeste 0 -- -- 73
2020-01-06 13:00:00 11.6 3 Norte 14 Norte 0 -- -- 80
2020-01-06 12:00:00 9.4 8 Norte 17 Norte 0 -- -- 91
2020-01-06 11:00:00 6.7 7 Norte 13 Norte 0 -- -- 100
2020-01-06 10:00:00 3.8 6 Norte 13 Norte 0 -- -- 100